DRRT

Tahoua Airport

Tahoua, Niger
METAR DRRT 101400Z 08010KT CAVOK 29/M05 Q1016
Observed Flight Rules
Dec-10 @ 14:00 UTC (an hour ago) Visual Flight Rules
Wind Visibility Clouds
80° at 10 knots 10,000+ meters
  • Clear skies
Temperatures Readings
Current 29°C / 84°F
Dewpoint -5°C / 23°F
Humidity 10%
Altimeter 30" Hg
Pressure 1016 hPa
Elevation 391
METAR DRRT 101400Z 08010KT CAVOK 29/M05 Q1016
Observed Flight Rules
Dec-10 @ 14:00 UTC
(an hour ago)
VFR
Wind Visibility
80° at 10 knots 10,000+ meters
Clouds
  • Clear skies
Temperature Dewpoint
29°C / 84°F -5°C / 23°F
Humidity Altimeter Pressure
10% 30" Hg 1016 hPa